PWSweather.com
Personal Weather Stations
Station Observations
ME1989
Sicily, Barcellona Pozzo Di GottoIT

SicilyBarcellona Pozzo Di GottoIT

Lat: 38.1487398, Lon: 15.2113962

Elevation: 131

Station Type: Peet Bros

Latest ConditionsUpdated 3:50:10 PM GMT+01:01 Monday, Dec 22, 2014
Currently Today's Max Today's Min Today's Average
Temperature 62.0°F16.7°C 63.0°F17.2°C 55.1°F12.8°C 59.3°F15.2°C
Dew Point 48.4°F9.1°C 55.0°F12.8°C 47.9°F8.8°C 51.7°F10.9°C
Winds Calm Calm 6.1 mph S9.8 kmh S - 2.2 mph 3.5 kmh
Wind Gusts -- 7.6 mph12.2 kmh - -
Humidity 61% 90% 59% 77%
Pressure 30.45 in1031.2 mb 30.48 in1032.2 mb 30.40 in1029.5 mb -
Precipitation - 0.06 in1.5 mm - -
Hour Temp Dew Point Humidity Winds Wind Gusts Pressure Precip Precip Rate Daily Precip Total
03:50 PM 62.0°F16.7°C 48.4°F9.1°C 61% Calm Calm -- 30.45 in1031.2 mb 0.00 in0.0 mm 0.00 in/hr0.0 mm/hr 0.06 in1.5 mm
03:40 PM 62.1°F16.7°C 48.5°F9.2°C 61% 0.5 mph NW0.8 kmh NW -- 30.45 in1031.2 mb 0.00 in0.0 mm 0.00 in/hr0.0 mm/hr 0.06 in1.5 mm
03:30 PM 62.3°F16.8°C 48.7°F9.3°C 61% 0.1 mph NW0.2 kmh NW 4.4 mph7.1 kmh 30.45 in1031.2 mb 0.00 in0.0 mm 0.00 in/hr0.0 mm/hr 0.06 in1.5 mm
03:20 PM 62.5°F16.9°C 48.4°F9.1°C 60% 3.6 mph N5.8 kmh N 5.2 mph8.4 kmh 30.44 in1030.8 mb 0.00 in0.0 mm 0.00 in/hr0.0 mm/hr 0.06 in1.5 mm
03:10 PM 62.5°F16.9°C 48.5°F9.2°C 60% 3.3 mph NNW5.3 kmh NNW 4.2 mph6.8 kmh 30.44 in1030.8 mb 0.00 in0.0 mm 0.00 in/hr0.0 mm/hr 0.06 in1.5 mm
03:00 PM 62.5°F16.9°C 48.4°F9.1°C 60% Calm Calm -- 30.44 in1030.8 mb 0.00 in0.0 mm 0.00 in/hr0.0 mm/hr 0.06 in1.5 mm
02:50 PM 62.9°F17.2°C 48.8°F9.3°C 60% Calm Calm -- 30.44 in1030.8 mb 0.00 in0.0 mm 0.00 in/hr0.0 mm/hr 0.06 in1.5 mm
02:40 PM 62.5°F16.9°C 48.5°F9.2°C 60% 2.4 mph NNW3.9 kmh NNW 3.5 mph5.6 kmh 30.44 in1030.8 mb 0.00 in0.0 mm 0.00 in/hr0.0 mm/hr 0.06 in1.5 mm
02:30 PM 62.7°F17.1°C 48.2°F9.0°C 59% 0.1 mph W0.2 kmh W -- 30.44 in1030.8 mb 0.00 in0.0 mm 0.00 in/hr0.0 mm/hr 0.06 in1.5 mm
02:20 PM 62.6°F17.0°C 48.5°F9.2°C 60% 0.8 mph N1.3 kmh N 3.3 mph5.3 kmh 30.44 in1030.8 mb 0.00 in0.0 mm 0.00 in/hr0.0 mm/hr 0.06 in1.5 mm
02:10 PM 62.6°F17.0°C 48.1°F8.9°C 59% 4.8 mph NNW7.7 kmh NNW 7.0 mph11.3 kmh 30.44 in1030.8 mb 0.00 in0.0 mm 0.00 in/hr0.0 mm/hr 0.06 in1.5 mm
02:00 PM 62.5°F16.9°C 48.4°F9.1°C 60% 3.8 mph NNW6.1 kmh NNW 5.8 mph9.3 kmh 30.45 in1031.2 mb 0.00 in0.0 mm 0.00 in/hr0.0 mm/hr 0.06 in1.5 mm
01:50 PM 62.5°F16.9°C 48.4°F9.1°C 60% 0.9 mph NNE1.4 kmh NNE -- 30.45 in1031.2 mb 0.00 in0.0 mm 0.00 in/hr0.0 mm/hr 0.06 in1.5 mm
01:40 PM 62.5°F16.9°C 48.5°F9.2°C 60% 3.2 mph NNW5.1 kmh NNW 5.8 mph9.3 kmh 30.45 in1031.2 mb 0.00 in0.0 mm 0.00 in/hr0.0 mm/hr 0.06 in1.5 mm
01:30 PM 62.5°F16.9°C 48.4°F9.1°C 60% 1.4 mph N2.3 kmh N 5.2 mph8.4 kmh 30.45 in1031.2 mb 0.00 in0.0 mm 0.00 in/hr0.0 mm/hr 0.06 in1.5 mm
01:20 PM 62.6°F17.0°C 50.2°F10.1°C 64% Calm Calm -- 30.45 in1031.2 mb 0.00 in0.0 mm 0.00 in/hr0.0 mm/hr 0.06 in1.5 mm
01:10 PM 62.4°F16.9°C 50.1°F10.1°C 64% 3.4 mph NW5.5 kmh NW 3.7 mph6.0 kmh 30.45 in1031.2 mb 0.00 in0.0 mm 0.00 in/hr0.0 mm/hr 0.06 in1.5 mm
01:00 PM 62.7°F17.1°C 49.9°F9.9°C 63% 0.9 mph N1.4 kmh N 2.1 mph3.4 kmh 30.46 in1031.5 mb 0.00 in0.0 mm 0.00 in/hr0.0 mm/hr 0.06 in1.5 mm
12:50 PM 62.1°F16.7°C 49.7°F9.8°C 64% 0.3 mph N0.5 kmh N 3.2 mph5.1 kmh 30.46 in1031.5 mb 0.00 in0.0 mm 0.00 in/hr0.0 mm/hr 0.06 in1.5 mm
12:40 PM 62.4°F16.9°C 49.2°F9.6°C 62% 2.5 mph WNW4.0 kmh WNW 5.4 mph8.7 kmh 30.46 in1031.5 mb 0.00 in0.0 mm 0.00 in/hr0.0 mm/hr 0.06 in1.5 mm
12:30 PM 62.8°F17.1°C 48.7°F9.3°C 60% Calm Calm -- 30.46 in1031.5 mb 0.00 in0.0 mm 0.00 in/hr0.0 mm/hr 0.06 in1.5 mm
12:20 PM 62.4°F16.9°C 47.9°F8.8°C 59% 1.9 mph NNW3.1 kmh NNW 2.4 mph3.9 kmh 30.46 in1031.5 mb 0.00 in0.0 mm 0.00 in/hr0.0 mm/hr 0.06 in1.5 mm
12:10 PM 62.4°F16.9°C 48.3°F9.1°C 60% 4.0 mph NW6.4 kmh NW 5.7 mph9.2 kmh 30.46 in1031.5 mb 0.00 in0.0 mm 0.00 in/hr0.0 mm/hr 0.06 in1.5 mm
12:00 PM 62.1°F16.7°C 48.1°F8.9°C 60% Calm Calm -- 30.46 in1031.5 mb 0.00 in0.0 mm 0.00 in/hr0.0 mm/hr 0.06 in1.5 mm
11:50 AM 62.7°F17.1°C 48.1°F8.9°C 59% 4.3 mph NW6.9 kmh NW 6.0 mph9.7 kmh 30.46 in1031.5 mb 0.00 in0.0 mm 0.00 in/hr0.0 mm/hr 0.06 in1.5 mm
11:40 AM 62.7°F17.1°C 48.6°F9.2°C 60% 2.3 mph NNE3.7 kmh NNE 2.7 mph4.3 kmh 30.46 in1031.5 mb 0.00 in0.0 mm 0.00 in/hr0.0 mm/hr 0.06 in1.5 mm
11:30 AM 62.7°F17.1°C 48.6°F9.2°C 60% 4.2 mph N6.8 kmh N 5.7 mph9.2 kmh 30.47 in1031.8 mb 0.00 in0.0 mm 0.00 in/hr0.0 mm/hr 0.06 in1.5 mm
11:20 AM 63.0°F17.2°C 48.9°F9.4°C 60% Calm Calm -- 30.47 in1031.8 mb 0.00 in0.0 mm 0.00 in/hr0.0 mm/hr 0.06 in1.5 mm
11:10 AM 62.8°F17.1°C 49.1°F9.5°C 61% Calm Calm -- 30.47 in1031.8 mb 0.00 in0.0 mm 0.00 in/hr0.0 mm/hr 0.06 in1.5 mm
11:00 AM 62.5°F16.9°C 49.3°F9.6°C 62% 1.0 mph WSW1.6 kmh WSW 1.6 mph2.6 kmh 30.48 in1032.2 mb 0.00 in0.0 mm 0.00 in/hr0.0 mm/hr 0.06 in1.5 mm
10:50 AM 62.5°F16.9°C 49.7°F9.8°C 63% 1.2 mph NW1.9 kmh NW 1.3 mph2.1 kmh 30.48 in1032.2 mb 0.00 in0.0 mm 0.00 in/hr0.0 mm/hr 0.06 in1.5 mm
10:40 AM 62.1°F16.7°C 50.2°F10.1°C 65% Calm Calm -- 30.48 in1032.2 mb 0.00 in0.0 mm 0.00 in/hr0.0 mm/hr 0.06 in1.5 mm
10:30 AM 62.2°F16.8°C 51.1°F10.6°C 67% Calm Calm -- 30.48 in1032.2 mb 0.00 in0.0 mm 0.00 in/hr0.0 mm/hr 0.06 in1.5 mm
10:20 AM 63.0°F17.2°C 52.6°F11.4°C 69% Calm Calm -- 30.48 in1032.2 mb 0.00 in0.0 mm 0.00 in/hr0.0 mm/hr 0.06 in1.5 mm
10:10 AM 62.7°F17.1°C 53.1°F11.7°C 71% Calm Calm -- 30.48 in1032.2 mb 0.00 in0.0 mm 0.00 in/hr0.0 mm/hr 0.06 in1.5 mm
10:00 AM 62.8°F17.1°C 53.6°F12.0°C 72% Calm Calm -- 30.48 in1032.2 mb 0.00 in0.0 mm 0.00 in/hr0.0 mm/hr 0.06 in1.5 mm
09:50 AM 62.0°F16.7°C 53.7°F12.1°C 74% 0.1 mph SE0.2 kmh SE -- 30.48 in1032.2 mb 0.00 in0.0 mm 0.00 in/hr0.0 mm/hr 0.06 in1.5 mm
09:40 AM 61.6°F16.4°C 53.9°F12.2°C 76% Calm Calm -- 30.47 in1031.8 mb 0.00 in0.0 mm 0.00 in/hr0.0 mm/hr 0.06 in1.5 mm
09:30 AM 60.3°F15.7°C 53.0°F11.7°C 77% Calm Calm -- 30.47 in1031.8 mb 0.00 in0.0 mm 0.00 in/hr0.0 mm/hr 0.06 in1.5 mm
09:20 AM 59.3°F15.2°C 52.5°F11.4°C 78% 2.0 mph SSE3.2 kmh SSE 2.7 mph4.3 kmh 30.47 in1031.8 mb 0.00 in0.0 mm 0.00 in/hr0.0 mm/hr 0.06 in1.5 mm
09:10 AM 58.7°F14.8°C 51.8°F11.0°C 78% 2.6 mph S4.2 kmh S 4.1 mph6.6 kmh 30.47 in1031.8 mb 0.00 in0.0 mm 0.00 in/hr0.0 mm/hr 0.06 in1.5 mm
09:00 AM 58.0°F14.4°C 51.5°F10.8°C 79% 2.6 mph S4.2 kmh S 3.0 mph4.8 kmh 30.46 in1031.5 mb 0.00 in0.0 mm 0.00 in/hr0.0 mm/hr 0.06 in1.5 mm
08:50 AM 57.4°F14.1°C 50.9°F10.5°C 79% 4.8 mph S7.7 kmh S 5.7 mph9.2 kmh 30.46 in1031.5 mb 0.00 in0.0 mm 0.00 in/hr0.0 mm/hr 0.06 in1.5 mm
08:40 AM 56.8°F13.8°C 50.6°F10.3°C 80% 3.4 mph S5.5 kmh S 5.3 mph8.5 kmh 30.45 in1031.2 mb 0.00 in0.0 mm 0.00 in/hr0.0 mm/hr 0.06 in1.5 mm
08:30 AM 56.3°F13.5°C 50.5°F10.3°C 81% 3.6 mph S5.8 kmh S 5.2 mph8.4 kmh 30.45 in1031.2 mb 0.00 in0.0 mm 0.00 in/hr0.0 mm/hr 0.06 in1.5 mm
08:20 AM 56.0°F13.3°C 50.6°F10.3°C 82% 4.8 mph S7.7 kmh S 5.8 mph9.3 kmh 30.45 in1031.2 mb 0.00 in0.0 mm 0.00 in/hr0.0 mm/hr 0.06 in1.5 mm
08:10 AM 55.7°F13.2°C 50.3°F10.2°C 82% 5.8 mph S9.3 kmh S 7.0 mph11.3 kmh 30.45 in1031.2 mb 0.00 in0.0 mm 0.00 in/hr0.0 mm/hr 0.06 in1.5 mm
08:00 AM 55.4°F13.0°C 50.7°F10.4°C 84% 5.1 mph S8.2 kmh S 6.5 mph10.5 kmh 30.44 in1030.8 mb 0.00 in0.0 mm 0.00 in/hr0.0 mm/hr 0.06 in1.5 mm
07:50 AM 55.1°F12.8°C 50.7°F10.4°C 85% 5.1 mph S8.2 kmh S 6.2 mph10.0 kmh 30.44 in1030.8 mb 0.00 in0.0 mm 0.00 in/hr0.0 mm/hr 0.06 in1.5 mm
07:40 AM 55.2°F12.9°C 51.1°F10.6°C 86% 3.4 mph S5.5 kmh S 4.5 mph7.2 kmh 30.44 in1030.8 mb 0.00 in0.0 mm 0.00 in/hr0.0 mm/hr 0.06 in1.5 mm
07:30 AM 55.4°F13.0°C 51.3°F10.7°C 86% 3.7 mph S6.0 kmh S 4.5 mph7.2 kmh 30.44 in1030.8 mb 0.01 in0.3 mm 0.06 in/hr1.5 mm/hr 0.06 in1.5 mm
07:20 AM 55.6°F13.1°C 51.8°F11.0°C 87% 3.0 mph S4.8 kmh S 4.0 mph6.4 kmh 30.44 in1030.8 mb 0.00 in0.0 mm 0.00 in/hr0.0 mm/hr 0.05 in1.3 mm
07:10 AM 55.7°F13.2°C 51.9°F11.1°C 87% 4.2 mph S6.8 kmh S 5.3 mph8.5 kmh 30.44 in1030.8 mb 0.00 in0.0 mm 0.00 in/hr0.0 mm/hr 0.05 in1.3 mm
07:00 AM 55.9°F13.3°C 52.4°F11.3°C 88% 3.3 mph S5.3 kmh S 4.2 mph6.8 kmh 30.44 in1030.8 mb 0.00 in0.0 mm 0.00 in/hr0.0 mm/hr 0.05 in1.3 mm
06:50 AM 56.0°F13.3°C 52.5°F11.4°C 88% 4.7 mph S7.6 kmh S 4.9 mph7.9 kmh 30.44 in1030.8 mb 0.00 in0.0 mm 0.00 in/hr0.0 mm/hr 0.05 in1.3 mm
06:40 AM 56.6°F13.7°C 52.8°F11.6°C 87% Calm Calm -- 30.43 in1030.5 mb 0.00 in0.0 mm 0.00 in/hr0.0 mm/hr 0.05 in1.3 mm
06:30 AM 57.0°F13.9°C 53.2°F11.8°C 87% Calm Calm -- 30.43 in1030.5 mb 0.00 in0.0 mm 0.00 in/hr0.0 mm/hr 0.05 in1.3 mm
06:20 AM 57.3°F14.1°C 53.5°F11.9°C 87% Calm Calm -- 30.43 in1030.5 mb 0.00 in0.0 mm 0.00 in/hr0.0 mm/hr 0.05 in1.3 mm
06:10 AM 57.5°F14.2°C 53.4°F11.9°C 86% Calm Calm -- 30.42 in1030.1 mb 0.00 in0.0 mm 0.00 in/hr0.0 mm/hr 0.05 in1.3 mm
06:00 AM 57.6°F14.2°C 53.4°F11.9°C 86% Calm Calm -- 30.42 in1030.1 mb 0.00 in0.0 mm 0.00 in/hr0.0 mm/hr 0.05 in1.3 mm
05:50 AM 57.6°F14.2°C 53.4°F11.9°C 86% 0.1 mph S0.2 kmh S -- 30.41 in1029.8 mb 0.00 in0.0 mm 0.00 in/hr0.0 mm/hr 0.05 in1.3 mm
05:40 AM 57.7°F14.3°C 53.6°F12.0°C 86% 2.6 mph SE4.2 kmh SE 3.0 mph4.8 kmh 30.41 in1029.8 mb 0.00 in0.0 mm 0.00 in/hr0.0 mm/hr 0.05 in1.3 mm
05:30 AM 57.9°F14.4°C 53.4°F11.9°C 85% Calm Calm -- 30.41 in1029.8 mb 0.00 in0.0 mm 0.00 in/hr0.0 mm/hr 0.05 in1.3 mm
05:20 AM 58.0°F14.4°C 53.5°F11.9°C 85% Calm Calm -- 30.41 in1029.8 mb 0.00 in0.0 mm 0.00 in/hr0.0 mm/hr 0.05 in1.3 mm
05:10 AM 58.2°F14.6°C 53.4°F11.9°C 84% Calm Calm -- 30.41 in1029.8 mb 0.00 in0.0 mm 0.00 in/hr0.0 mm/hr 0.05 in1.3 mm
05:00 AM 58.1°F14.5°C 53.7°F12.1°C 85% Calm Calm -- 30.41 in1029.8 mb 0.00 in0.0 mm 0.00 in/hr0.0 mm/hr 0.05 in1.3 mm
04:50 AM 57.8°F14.3°C 53.6°F12.0°C 86% Calm Calm -- 30.40 in1029.5 mb 0.00 in0.0 mm 0.00 in/hr0.0 mm/hr 0.05 in1.3 mm
04:40 AM 57.7°F14.3°C 53.5°F11.9°C 86% Calm Calm -- 30.40 in1029.5 mb 0.00 in0.0 mm 0.00 in/hr0.0 mm/hr 0.05 in1.3 mm
04:30 AM 57.8°F14.3°C 53.6°F12.0°C 86% Calm Calm -- 30.40 in1029.5 mb 0.00 in0.0 mm 0.00 in/hr0.0 mm/hr 0.05 in1.3 mm
04:20 AM 57.9°F14.4°C 53.7°F12.1°C 86% Calm Calm -- 30.40 in1029.5 mb 0.00 in0.0 mm 0.00 in/hr0.0 mm/hr 0.05 in1.3 mm
04:10 AM 58.0°F14.4°C 53.8°F12.1°C 86% 0.1 mph S0.2 kmh S 2.6 mph4.2 kmh 30.40 in1029.5 mb 0.00 in0.0 mm 0.00 in/hr0.0 mm/hr 0.05 in1.3 mm
04:00 AM 57.8°F14.3°C 53.3°F11.8°C 85% 4.7 mph S7.6 kmh S 5.2 mph8.4 kmh 30.40 in1029.5 mb 0.00 in0.0 mm 0.00 in/hr0.0 mm/hr 0.05 in1.3 mm
03:50 AM 57.6°F14.2°C 53.5°F11.9°C 86% 5.3 mph S8.5 kmh S 6.0 mph9.7 kmh 30.40 in1029.5 mb 0.00 in0.0 mm 0.00 in/hr0.0 mm/hr 0.05 in1.3 mm
03:40 AM 57.4°F14.1°C 53.2°F11.8°C 86% 5.6 mph S9.0 kmh S 6.7 mph10.8 kmh 30.40 in1029.5 mb 0.00 in0.0 mm 0.00 in/hr0.0 mm/hr 0.05 in1.3 mm
03:30 AM 57.2°F14.0°C 53.3°F11.8°C 87% 4.0 mph S6.4 kmh S 6.2 mph10.0 kmh 30.40 in1029.5 mb 0.00 in0.0 mm 0.00 in/hr0.0 mm/hr 0.05 in1.3 mm
03:20 AM 57.1°F13.9°C 53.2°F11.8°C 87% 4.1 mph S6.6 kmh S 6.8 mph10.9 kmh 30.40 in1029.5 mb 0.00 in0.0 mm 0.00 in/hr0.0 mm/hr 0.05 in1.3 mm
03:10 AM 57.2°F14.0°C 53.3°F11.8°C 87% 4.4 mph S7.1 kmh S 5.1 mph8.2 kmh 30.40 in1029.5 mb 0.00 in0.0 mm 0.00 in/hr0.0 mm/hr 0.05 in1.3 mm
03:00 AM 56.6°F13.7°C 53.1°F11.7°C 88% 5.2 mph SSW8.4 kmh SSW 7.0 mph11.3 kmh 30.41 in1029.8 mb 0.00 in0.0 mm 0.00 in/hr0.0 mm/hr 0.05 in1.3 mm
02:50 AM 56.7°F13.7°C 53.2°F11.8°C 88% 4.9 mph S7.9 kmh S 6.5 mph10.5 kmh 30.41 in1029.8 mb 0.00 in0.0 mm 0.00 in/hr0.0 mm/hr 0.05 in1.3 mm
02:40 AM 56.8°F13.8°C 53.3°F11.8°C 88% 4.8 mph SSW7.7 kmh SSW 7.4 mph11.9 kmh 30.41 in1029.8 mb 0.00 in0.0 mm 0.00 in/hr0.0 mm/hr 0.05 in1.3 mm
02:30 AM 56.5°F13.6°C 53.3°F11.8°C 89% 6.1 mph S9.8 kmh S 7.6 mph12.2 kmh 30.41 in1029.8 mb 0.00 in0.0 mm 0.00 in/hr0.0 mm/hr 0.05 in1.3 mm
02:20 AM 56.8°F13.8°C 53.6°F12.0°C 89% 4.0 mph S6.4 kmh S 5.5 mph8.9 kmh 30.41 in1029.8 mb 0.00 in0.0 mm 0.00 in/hr0.0 mm/hr 0.05 in1.3 mm
02:10 AM 56.7°F13.7°C 53.5°F11.9°C 89% 5.8 mph S9.3 kmh S 6.4 mph10.3 kmh 30.41 in1029.8 mb 0.00 in0.0 mm 0.00 in/hr0.0 mm/hr 0.05 in1.3 mm
02:00 AM 57.0°F13.9°C 53.8°F12.1°C 89% 4.5 mph S7.2 kmh S 5.7 mph9.2 kmh 30.41 in1029.8 mb 0.00 in0.0 mm 0.00 in/hr0.0 mm/hr 0.05 in1.3 mm
01:50 AM 57.3°F14.1°C 54.0°F12.2°C 89% 4.5 mph S7.2 kmh S 5.4 mph8.7 kmh 30.41 in1029.8 mb 0.00 in0.0 mm 0.00 in/hr0.0 mm/hr 0.05 in1.3 mm
01:40 AM 57.4°F14.1°C 54.5°F12.5°C 90% 2.4 mph S3.9 kmh S 3.2 mph5.1 kmh 30.40 in1029.5 mb 0.00 in0.0 mm 0.00 in/hr0.0 mm/hr 0.05 in1.3 mm
01:30 AM 57.5°F14.2°C 54.3°F12.4°C 89% 5.0 mph S8.0 kmh S 6.3 mph10.1 kmh 30.40 in1029.5 mb 0.00 in0.0 mm 0.00 in/hr0.0 mm/hr 0.05 in1.3 mm
01:20 AM 57.5°F14.2°C 54.6°F12.6°C 90% 4.6 mph S7.4 kmh S 5.0 mph8.0 kmh 30.40 in1029.5 mb 0.00 in0.0 mm 0.00 in/hr0.0 mm/hr 0.05 in1.3 mm
01:10 AM 57.7°F14.3°C 54.8°F12.7°C 90% 4.0 mph S6.4 kmh S 6.0 mph9.7 kmh 30.40 in1029.5 mb 0.00 in0.0 mm 0.00 in/hr0.0 mm/hr 0.05 in1.3 mm
01:00 AM 57.9°F14.4°C 55.0°F12.8°C 90% Calm Calm -- 30.40 in1029.5 mb 0.00 in0.0 mm 0.00 in/hr0.0 mm/hr 0.05 in1.3 mm
12:50 AM 57.9°F14.4°C 54.7°F12.6°C 89% Calm Calm -- 30.41 in1029.8 mb 0.00 in0.0 mm 0.00 in/hr0.0 mm/hr 0.05 in1.3 mm
12:40 AM 58.1°F14.5°C 54.8°F12.7°C 89% Calm Calm -- 30.41 in1029.8 mb 0.00 in0.0 mm 0.00 in/hr0.0 mm/hr 0.05 in1.3 mm
12:30 AM 58.0°F14.4°C 54.8°F12.7°C 89% Calm Calm -- 30.41 in1029.8 mb 0.00 in0.0 mm 0.00 in/hr0.0 mm/hr 0.05 in1.3 mm
12:20 AM 58.1°F14.5°C 54.9°F12.7°C 89% Calm Calm -- 30.41 in1029.8 mb 0.03 in0.8 mm 0.18 in/hr4.6 mm/hr 0.05 in1.3 mm
12:10 AM 58.1°F14.5°C 54.9°F12.7°C 89% 4.4 mph S7.1 kmh S 5.4 mph8.7 kmh 30.40 in1029.5 mb 0.02 in0.5 mm 0.12 in/hr3.0 mm/hr 0.02 in0.5 mm
12:00 AM 57.9°F14.4°C 54.7°F12.6°C 89% 5.1 mph SW8.2 kmh SW 6.5 mph10.5 kmh 30.41 in1029.8 mb 0.00 in0.0 mm 0.00 in/hr0.0 mm/hr 0.00 in0.0 mm